Time;durP1;ratioP1;P1;durP2;ratioP2;P2;SDS_P1;SDS_P2;PMS_P1;PMS_P2;Temp;Humidity;BMP_temperature;BMP_pressure;BME280_temperature;BME280_humidity;BME280_pressure;Samples;Min_cycle;Max_cycle;Signal;HPM_P1;HPM_P2
2022/04/07 00:02:20;;;;;;;8.68;5.07;;;;;;;;;;4968961;28;20134;-76
2022/04/07 00:04:47;;;;;;;7.68;4.85;;;;;;;;;;4952481;28;20142;-76
2022/04/07 00:07:15;;;;;;;8.30;5.25;;;;;;;;;;4968720;28;20134;-76
2022/04/07 00:09:42;;;;;;;9.48;5.13;;;;;;;;;;4968035;28;20078;-76
2022/04/07 00:12:09;;;;;;;8.52;4.65;;;;;;;;;;4967261;28;20149;-77
2022/04/07 00:14:36;;;;;;;7.85;4.50;;;;;;;;;;4968884;28;20491;-76
2022/04/07 00:17:04;;;;;;;7.78;5.22;;;;;;;;;;4970790;28;20051;-77
2022/04/07 00:19:31;;;;;;;7.28;5.15;;;;;;;;;;4952789;28;20062;-76
2022/04/07 00:21:59;;;;;;;10.95;5.70;;;;;;;;;;4969157;28;20054;-76
2022/04/07 00:24:27;;;;;;;7.20;4.72;;;;;;;;;;4983628;28;20050;-76
2022/04/07 00:26:54;;;;;;;8.93;5.15;;;;;;;;;;4971868;28;20110;-76
2022/04/07 00:29:21;;;;;;;9.70;4.90;;;;;;;;;;4968666;28;20062;-76
2022/04/07 00:31:55;;;;;;;7.85;4.95;;;;;;;;;;4951819;28;20806;-76
2022/04/07 00:34:23;;;;;;;10.02;5.30;;;;;;;;;;4968895;28;20081;-76
2022/04/07 00:36:51;;;;;;;12.90;6.20;;;;;;;;;;4965224;28;20109;-76
2022/04/07 00:39:18;;;;;;;10.35;5.20;;;;;;;;;;4966705;28;20117;-76
2022/04/07 00:41:45;;;;;;;9.32;5.32;;;;;;;;;;4951411;28;20146;-76
2022/04/07 00:44:13;;;;;;;7.50;4.93;;;;;;;;;;4951747;28;20083;-76
2022/04/07 00:46:41;;;;;;;9.18;5.13;;;;;;;;;;4955530;28;20141;-83
2022/04/07 00:49:10;;;;;;;13.05;6.10;;;;;;;;;;4971607;28;20079;-82
2022/04/07 00:51:39;;;;;;;8.07;5.97;;;;;;;;;;4955342;28;20050;-82
2022/04/07 00:54:07;;;;;;;10.70;5.57;;;;;;;;;;4976768;28;20058;-82
2022/04/07 00:56:38;;;;;;;11.85;6.13;;;;;;;;;;4972380;28;20802;-82
2022/04/07 00:59:06;;;;;;;9.63;5.55;;;;;;;;;;4972349;28;20150;-82
2022/04/07 01:01:33;;;;;;;6.43;4.78;;;;;;;;;;4973378;28;20059;-82
2022/04/07 01:04:01;;;;;;;8.82;5.57;;;;;;;;;;4973001;28;20055;-82
2022/04/07 01:06:29;;;;;;;8.95;5.80;;;;;;;;;;4955455;28;20054;-82
2022/04/07 01:08:56;;;;;;;11.65;5.85;;;;;;;;;;4972354;28;20053;-83
2022/04/07 01:11:26;;;;;;;8.20;5.25;;;;;;;;;;4972336;28;20779;-82
2022/04/07 01:13:53;;;;;;;11.65;5.78;;;;;;;;;;4971497;28;20055;-82
2022/04/07 01:16:21;;;;;;;10.43;5.32;;;;;;;;;;4955175;28;20093;-82
2022/04/07 01:18:49;;;;;;;9.30;5.72;;;;;;;;;;4955010;28;20081;-81
2022/04/07 01:21:17;;;;;;;9.00;5.55;;;;;;;;;;4955542;28;20145;-82
2022/04/07 01:23:51;;;;;;;8.90;5.30;;;;;;;;;;4981253;28;20050;-82
2022/04/07 01:26:19;;;;;;;10.45;5.68;;;;;;;;;;4980941;28;20133;-81
2022/04/07 01:28:49;;;;;;;9.20;5.38;;;;;;;;;;4972996;28;20078;-82
2022/04/07 01:31:17;;;;;;;9.07;6.18;;;;;;;;;;4971014;28;20130;-82
2022/04/07 01:33:44;;;;;;;7.38;5.85;;;;;;;;;;4972334;28;20484;-82
2022/04/07 01:36:13;;;;;;;9.98;6.15;;;;;;;;;;4971633;28;20078;-82
2022/04/07 01:38:40;;;;;;;12.77;6.38;;;;;;;;;;4955003;28;20744;-82
2022/04/07 01:41:08;;;;;;;9.68;6.00;;;;;;;;;;4971923;28;20454;-81
2022/04/07 01:43:35;;;;;;;11.43;5.97;;;;;;;;;;4972593;28;20117;-82
2022/04/07 01:46:02;;;;;;;11.93;6.30;;;;;;;;;;4970630;28;20483;-83
2022/04/07 01:48:30;;;;;;;8.63;5.88;;;;;;;;;;4972825;28;20085;-82
2022/04/07 01:50:57;;;;;;;12.13;6.32;;;;;;;;;;4954778;28;20051;-83
2022/04/07 01:53:26;;;;;;;9.98;6.35;;;;;;;;;;4978846;28;20112;-82
2022/04/07 01:55:53;;;;;;;7.47;5.55;;;;;;;;;;4982536;28;20129;-82
2022/04/07 01:58:21;;;;;;;7.70;5.80;;;;;;;;;;4955099;28;20051;-82
2022/04/07 02:00:48;;;;;;;13.98;6.60;;;;;;;;;;4971771;28;20520;-81
2022/04/07 02:03:15;;;;;;;10.82;6.72;;;;;;;;;;4955019;28;20057;-83
2022/04/07 02:05:42;;;;;;;10.13;5.88;;;;;;;;;;4954797;28;20054;-82
2022/04/07 02:08:10;;;;;;;9.18;5.90;;;;;;;;;;4971931;28;20125;-82
2022/04/07 02:10:37;;;;;;;12.75;7.72;;;;;;;;;;4971707;28;20051;-82
2022/04/07 02:13:04;;;;;;;10.40;6.05;;;;;;;;;;4970466;28;20554;-82
2022/04/07 02:15:31;;;;;;;9.75;6.53;;;;;;;;;;4971935;28;20086;-82
2022/04/07 02:17:58;;;;;;;9.85;6.47;;;;;;;;;;4971736;28;20846;-83
2022/04/07 02:20:26;;;;;;;12.45;6.47;;;;;;;;;;4971733;28;20459;-82
2022/04/07 02:22:55;;;;;;;13.98;6.55;;;;;;;;;;4958047;28;20084;-83
2022/04/07 02:25:23;;;;;;;11.75;6.10;;;;;;;;;;4984653;28;20050;-82
2022/04/07 02:27:51;;;;;;;10.05;6.35;;;;;;;;;;4955829;28;20051;-82
2022/04/07 02:30:19;;;;;;;11.52;6.78;;;;;;;;;;4955172;28;20066;-82
2022/04/07 02:32:48;;;;;;;12.27;6.20;;;;;;;;;;4955015;28;20441;-81
2022/04/07 02:35:16;;;;;;;9.68;6.60;;;;;;;;;;4954591;28;20523;-81
2022/04/07 02:37:43;;;;;;;12.80;6.13;;;;;;;;;;4972060;28;20097;-82
2022/04/07 02:40:11;;;;;;;10.40;6.07;;;;;;;;;;4972520;28;20097;-82
2022/04/07 02:42:38;;;;;;;14.45;7.07;;;;;;;;;;4954707;28;20435;-82
2022/04/07 02:45:06;;;;;;;9.35;6.25;;;;;;;;;;4954597;28;20086;-82
2022/04/07 02:47:34;;;;;;;9.30;6.38;;;;;;;;;;4954425;28;20482;-83
2022/04/07 02:50:02;;;;;;;11.82;6.50;;;;;;;;;;4971734;28;20153;-82
2022/04/07 02:52:29;;;;;;;12.23;7.35;;;;;;;;;;4971094;28;20320;-82
2022/04/07 02:54:56;;;;;;;12.13;6.75;;;;;;;;;;4952146;28;20066;-81
2022/04/07 02:57:24;;;;;;;8.90;6.25;;;;;;;;;;4971758;28;20086;-82
2022/04/07 02:59:52;;;;;;;12.02;6.93;;;;;;;;;;4971356;28;20140;-81
2022/04/07 03:02:20;;;;;;;9.45;5.88;;;;;;;;;;4971578;28;20802;-81
2022/04/07 03:04:48;;;;;;;10.48;6.60;;;;;;;;;;4970937;28;20118;-82
2022/04/07 03:07:15;;;;;;;13.32;6.90;;;;;;;;;;4954422;28;20133;-81
2022/04/07 03:09:44;;;;;;;15.23;7.07;;;;;;;;;;4954365;28;20050;-82
2022/04/07 03:12:13;;;;;;;14.65;7.53;;;;;;;;;;4973878;28;20054;-82
2022/04/07 03:14:45;;;;;;;10.68;6.47;;;;;;;;;;4959556;28;20051;-82
2022/04/07 03:17:12;;;;;;;10.60;6.40;;;;;;;;;;4974939;28;20050;-82
2022/04/07 03:19:39;;;;;;;13.85;7.22;;;;;;;;;;4959042;28;20098;-82
2022/04/07 03:22:07;;;;;;;15.48;7.22;;;;;;;;;;4972817;28;20087;-82
2022/04/07 03:24:35;;;;;;;12.82;6.90;;;;;;;;;;4958263;28;20058;-84
2022/04/07 03:27:08;;;;;;;16.70;6.90;;;;;;;;;;4974287;28;20073;-83
2022/04/07 03:29:37;;;;;;;12.52;7.40;;;;;;;;;;4957367;28;20059;-82
2022/04/07 03:32:05;;;;;;;14.18;7.03;;;;;;;;;;4973800;28;20158;-82
2022/04/07 03:34:33;;;;;;;12.55;7.30;;;;;;;;;;4972686;28;20531;-82
2022/04/07 03:37:01;;;;;;;12.77;7.50;;;;;;;;;;4956815;28;20043;-82
2022/04/07 03:39:29;;;;;;;12.43;6.80;;;;;;;;;;4952181;28;20048;-82
2022/04/07 03:41:56;;;;;;;13.43;7.72;;;;;;;;;;4967117;28;21812;-82
2022/04/07 03:44:23;;;;;;;14.07;7.20;;;;;;;;;;4953952;28;20141;-82
2022/04/07 03:46:50;;;;;;;11.60;6.80;;;;;;;;;;4972998;28;20086;-82
2022/04/07 03:49:18;;;;;;;12.35;7.20;;;;;;;;;;4972729;28;20046;-82
2022/04/07 03:51:45;;;;;;;12.88;7.63;;;;;;;;;;4970095;28;20136;-83
2022/04/07 03:54:14;;;;;;;14.32;8.65;;;;;;;;;;4976728;28;20136;-82
2022/04/07 03:56:41;;;;;;;17.45;7.63;;;;;;;;;;4981898;28;20055;-82
2022/04/07 03:59:08;;;;;;;17.55;7.35;;;;;;;;;;4972676;28;20463;-82
2022/04/07 04:01:36;;;;;;;14.50;7.63;;;;;;;;;;4956424;28;20460;-82
2022/04/07 04:04:03;;;;;;;14.57;7.85;;;;;;;;;;4973902;28;20063;-82
2022/04/07 04:06:30;;;;;;;11.60;7.05;;;;;;;;;;4973766;28;20054;-82
2022/04/07 04:08:57;;;;;;;16.08;7.72;;;;;;;;;;4973063;28;20718;-81
2022/04/07 04:11:25;;;;;;;14.98;7.35;;;;;;;;;;4972675;28;20082;-82
2022/04/07 04:13:52;;;;;;;13.90;7.80;;;;;;;;;;4972301;28;20476;-81
2022/04/07 04:16:19;;;;;;;16.58;7.55;;;;;;;;;;4973190;28;20098;-82
2022/04/07 04:18:46;;;;;;;12.05;7.72;;;;;;;;;;4972953;28;20141;-82
2022/04/07 04:21:13;;;;;;;14.43;7.85;;;;;;;;;;4971688;28;20130;-82
2022/04/07 04:23:41;;;;;;;14.20;7.88;;;;;;;;;;4977245;28;20050;-81
2022/04/07 04:26:08;;;;;;;10.85;6.75;;;;;;;;;;4977104;28;20054;-81
2022/04/07 04:28:35;;;;;;;11.07;6.32;;;;;;;;;;4972442;28;20054;-81
2022/04/07 04:31:03;;;;;;;11.75;6.78;;;;;;;;;;4971770;28;20113;-81
2022/04/07 04:33:30;;;;;;;10.25;6.55;;;;;;;;;;4972924;28;20062;-80
2022/04/07 04:35:59;;;;;;;12.30;6.18;;;;;;;;;;4956444;28;20045;-81
2022/04/07 04:38:26;;;;;;;11.18;5.55;;;;;;;;;;4951564;29;20051;-76
2022/04/07 04:40:53;;;;;;;11.65;6.15;;;;;;;;;;4957493;28;20047;-75
2022/04/07 04:43:20;;;;;;;12.07;6.55;;;;;;;;;;4951081;28;20051;-76
2022/04/07 04:45:48;;;;;;;9.80;5.75;;;;;;;;;;4950018;28;20042;-76
2022/04/07 04:48:15;;;;;;;14.02;6.00;;;;;;;;;;4968673;28;20085;-77
2022/04/07 04:50:43;;;;;;;10.43;5.82;;;;;;;;;;4966870;28;20055;-77
2022/04/07 04:53:10;;;;;;;10.57;5.40;;;;;;;;;;4955770;28;20132;-77
2022/04/07 04:55:37;;;;;;;10.55;5.63;;;;;;;;;;4983022;28;20047;-76
2022/04/07 04:58:04;;;;;;;13.27;5.82;;;;;;;;;;4967403;28;20825;-76
2022/04/07 05:00:32;;;;;;;13.60;5.38;;;;;;;;;;4965192;28;20133;-76
2022/04/07 05:02:59;;;;;;;11.13;5.22;;;;;;;;;;4968888;28;20149;-75
2022/04/07 05:05:29;;;;;;;9.98;5.55;;;;;;;;;;4954296;28;20806;-77
2022/04/07 05:07:56;;;;;;;9.32;5.03;;;;;;;;;;4969977;28;20137;-76
2022/04/07 05:10:24;;;;;;;11.45;4.68;;;;;;;;;;4968490;28;20086;-77
2022/04/07 05:12:52;;;;;;;10.50;4.88;;;;;;;;;;4970074;28;20039;-79
2022/04/07 05:15:20;;;;;;;7.90;5.20;;;;;;;;;;4953241;28;20101;-80
2022/04/07 05:17:49;;;;;;;7.82;5.20;;;;;;;;;;4971492;28;20086;-79
2022/04/07 05:20:17;;;;;;;10.18;4.80;;;;;;;;;;4970386;28;20478;-79
2022/04/07 05:22:45;;;;;;;11.55;5.80;;;;;;;;;;4972285;28;20868;-79
2022/04/07 05:25:12;;;;;;;10.10;4.43;;;;;;;;;;4982639;28;20059;-79
2022/04/07 05:27:40;;;;;;;9.85;4.90;;;;;;;;;;4972969;28;20352;-79
2022/04/07 05:30:12;;;;;;;10.85;4.53;;;;;;;;;;4953224;28;20189;-79
2022/04/07 05:32:43;;;;;;;7.43;4.45;;;;;;;;;;4953948;28;20499;-78
2022/04/07 05:35:11;;;;;;;6.28;4.30;;;;;;;;;;4953143;28;20055;-80
2022/04/07 05:37:38;;;;;;;13.85;5.07;;;;;;;;;;4972240;28;20449;-77
2022/04/07 05:40:06;;;;;;;9.90;4.20;;;;;;;;;;4952422;28;20532;-79
2022/04/07 05:42:33;;;;;;;9.98;4.60;;;;;;;;;;4969591;28;20130;-84
2022/04/07 05:45:00;;;;;;;10.90;4.38;;;;;;;;;;4969898;28;20445;-77
2022/04/07 05:47:28;;;;;;;7.05;4.30;;;;;;;;;;4966621;28;20452;-77
2022/04/07 05:49:55;;;;;;;8.75;4.40;;;;;;;;;;4968787;28;20058;-77
2022/04/07 05:52:23;;;;;;;7.88;4.68;;;;;;;;;;4969029;28;20515;-77
2022/04/07 05:54:50;;;;;;;9.75;5.07;;;;;;;;;;4967694;28;20468;-77
2022/04/07 05:57:17;;;;;;;11.32;4.82;;;;;;;;;;4973675;28;20074;-77
2022/04/07 05:59:45;;;;;;;9.90;4.53;;;;;;;;;;4950003;28;20137;-77
2022/04/07 06:02:12;;;;;;;7.93;4.55;;;;;;;;;;4968569;28;20170;-77
2022/04/07 06:04:41;;;;;;;9.50;4.70;;;;;;;;;;4966637;28;20161;-77
2022/04/07 06:07:08;;;;;;;12.15;5.05;;;;;;;;;;4966977;28;20105;-77
2022/04/07 06:09:35;;;;;;;8.35;5.10;;;;;;;;;;4967072;28;20162;-78
2022/04/07 06:12:02;;;;;;;10.05;5.05;;;;;;;;;;4966291;28;20130;-77
2022/04/07 06:14:29;;;;;;;7.45;4.65;;;;;;;;;;4966449;28;20121;-77
2022/04/07 06:16:57;;;;;;;8.90;5.10;;;;;;;;;;4949233;28;20138;-76
2022/04/07 06:19:24;;;;;;;8.50;5.20;;;;;;;;;;4966550;28;20826;-77
2022/04/07 06:21:51;;;;;;;8.38;5.32;;;;;;;;;;4966349;28;20515;-77
2022/04/07 06:24:19;;;;;;;11.13;5.10;;;;;;;;;;4967887;28;20475;-76
2022/04/07 06:26:47;;;;;;;9.65;4.75;;;;;;;;;;4966327;28;20456;-76
2022/04/07 06:29:15;;;;;;;8.07;4.25;;;;;;;;;;4949915;28;20150;-77
2022/04/07 06:31:42;;;;;;;9.35;3.95;;;;;;;;;;4949426;28;20134;-77
2022/04/07 06:34:26;;;;;;;6.85;4.55;;;;;;;;;;4966808;28;20185;-77
2022/04/07 06:36:53;;;;;;;4.93;3.58;;;;;;;;;;4965701;28;20520;-78
2022/04/07 06:39:21;;;;;;;8.35;3.80;;;;;;;;;;4949771;28;20310;-78
2022/04/07 06:41:48;;;;;;;5.90;3.15;;;;;;;;;;4966454;28;20055;-78
2022/04/07 06:44:16;;;;;;;8.00;3.63;;;;;;;;;;4965886;28;20047;-78
2022/04/07 06:46:43;;;;;;;8.85;3.40;;;;;;;;;;4963288;28;20065;-77
2022/04/07 06:49:10;;;;;;;8.98;3.30;;;;;;;;;;4965052;28;20054;-78
2022/04/07 06:51:37;;;;;;;5.68;2.47;;;;;;;;;;4972832;28;20761;-77
2022/04/07 06:54:05;;;;;;;9.27;3.17;;;;;;;;;;4966650;28;20089;-77
2022/04/07 06:56:32;;;;;;;8.18;3.00;;;;;;;;;;4949073;28;20125;-77
2022/04/07 06:58:59;;;;;;;9.00;2.65;;;;;;;;;;4952326;28;20046;-77
2022/04/07 07:01:27;;;;;;;5.07;2.50;;;;;;;;;;4939165;29;20083;-78
2022/04/07 07:03:54;;;;;;;5.70;2.45;;;;;;;;;;4947352;29;20053;-77
2022/04/07 07:06:21;;;;;;;6.93;2.38;;;;;;;;;;4954621;28;20142;-77
2022/04/07 07:08:48;;;;;;;8.25;2.70;;;;;;;;;;4969086;28;20197;-77
2022/04/07 07:11:16;;;;;;;3.40;2.40;;;;;;;;;;4966258;28;20234;-77
2022/04/07 07:13:43;;;;;;;6.68;2.28;;;;;;;;;;4965676;28;20043;-77
2022/04/07 07:16:10;;;;;;;4.50;2.20;;;;;;;;;;4966287;28;20106;-77
2022/04/07 07:18:38;;;;;;;8.07;2.22;;;;;;;;;;4966959;28;20055;-77
2022/04/07 07:21:05;;;;;;;6.72;2.08;;;;;;;;;;4965335;28;20055;-77
2022/04/07 07:23:33;;;;;;;3.33;2.30;;;;;;;;;;4967032;28;20736;-77
2022/04/07 07:26:00;;;;;;;6.68;1.90;;;;;;;;;;4966730;28;20751;-77
2022/04/07 07:28:27;;;;;;;5.35;2.05;;;;;;;;;;4967430;28;20767;-77
2022/04/07 07:30:54;;;;;;;4.10;1.92;;;;;;;;;;4946960;28;20075;-77
2022/04/07 07:33:22;;;;;;;14.35;2.53;;;;;;;;;;4967178;28;20460;-77
2022/04/07 07:35:49;;;;;;;2.40;1.60;;;;;;;;;;4967512;28;20050;-77
2022/04/07 07:38:16;;;;;;;9.00;1.77;;;;;;;;;;4967610;28;20074;-77
2022/04/07 07:40:43;;;;;;;4.68;1.60;;;;;;;;;;4949811;28;20078;-77
2022/04/07 07:43:10;;;;;;;4.68;1.77;;;;;;;;;;4967005;28;20130;-78
2022/04/07 07:45:38;;;;;;;5.45;1.73;;;;;;;;;;4966296;28;20146;-77
2022/04/07 07:48:28;;;;;;;3.67;1.58;;;;;;;;;;4966480;28;20307;-78
2022/04/07 07:50:56;;;;;;;8.05;1.50;;;;;;;;;;4964731;28;20074;-78
2022/04/07 07:53:23;;;;;;;7.43;1.83;;;;;;;;;;4970724;28;20112;-78
2022/04/07 07:55:50;;;;;;;5.55;1.98;;;;;;;;;;4981975;28;20484;-78
2022/04/07 07:58:18;;;;;;;4.60;1.67;;;;;;;;;;4983662;28;20082;-78
2022/04/07 08:00:45;;;;;;;6.47;2.10;;;;;;;;;;4984496;28;20129;-78
2022/04/07 08:03:12;;;;;;;3.95;1.45;;;;;;;;;;4969912;28;20066;-77
2022/04/07 08:05:39;;;;;;;8.25;2.15;;;;;;;;;;4970405;28;20104;-77
2022/04/07 08:08:07;;;;;;;6.53;1.60;;;;;;;;;;4956642;28;20059;-77
2022/04/07 08:10:34;;;;;;;5.43;1.70;;;;;;;;;;4969840;28;20101;-77
2022/04/07 08:13:01;;;;;;;3.47;1.55;;;;;;;;;;4968960;28;20055;-77
2022/04/07 08:15:30;;;;;;;7.78;1.83;;;;;;;;;;4969973;28;20054;-77
2022/04/07 08:17:58;;;;;;;9.55;2.03;;;;;;;;;;4956528;28;20515;-77
2022/04/07 08:20:25;;;;;;;7.00;1.80;;;;;;;;;;4969468;28;20475;-77
2022/04/07 08:22:52;;;;;;;10.40;1.95;;;;;;;;;;4968822;28;20084;-78
2022/04/07 08:25:19;;;;;;;3.17;1.40;;;;;;;;;;4969948;28;20089;-76
2022/04/07 08:27:46;;;;;;;4.97;1.67;;;;;;;;;;4952885;28;20051;-78
2022/04/07 08:30:13;;;;;;;4.45;1.63;;;;;;;;;;4967926;28;20071;-77
2022/04/07 08:32:41;;;;;;;4.13;1.77;;;;;;;;;;4952718;28;20081;-77
2022/04/07 08:35:10;;;;;;;4.97;1.95;;;;;;;;;;4952219;28;20916;-77
2022/04/07 08:37:37;;;;;;;4.28;1.60;;;;;;;;;;4934989;29;20054;-77
2022/04/07 08:40:07;;;;;;;6.47;1.73;;;;;;;;;;4950623;29;20059;-77
2022/04/07 08:42:35;;;;;;;5.55;1.50;;;;;;;;;;4950062;28;20061;-78
2022/04/07 08:45:02;;;;;;;6.47;1.50;;;;;;;;;;4952525;28;20712;-77
2022/04/07 08:47:49;;;;;;;6.30;1.70;;;;;;;;;;4969214;28;20082;-77
2022/04/07 08:50:17;;;;;;;12.13;2.22;;;;;;;;;;4951291;28;20047;-78
2022/04/07 08:52:44;;;;;;;6.35;2.17;;;;;;;;;;4969121;28;20130;-78
2022/04/07 08:55:11;;;;;;;4.40;1.48;;;;;;;;;;4968898;28;20074;-77
2022/04/07 08:57:40;;;;;;;3.22;1.40;;;;;;;;;;4948359;28;20078;-77
2022/04/07 09:00:07;;;;;;;4.32;1.70;;;;;;;;;;4951486;28;20090;-77
2022/04/07 09:02:35;;;;;;;5.03;1.55;;;;;;;;;;4968703;28;20162;-77
2022/04/07 09:05:02;;;;;;;4.28;1.50;;;;;;;;;;4982231;28;20070;-78
2022/04/07 09:07:33;;;;;;;13.23;2.20;;;;;;;;;;4969090;28;20137;-78
2022/04/07 09:10:01;;;;;;;3.95;1.50;;;;;;;;;;4967208;28;20051;-78
2022/04/07 09:12:28;;;;;;;11.40;2.28;;;;;;;;;;4968931;28;20046;-77
2022/04/07 09:14:57;;;;;;;5.75;1.60;;;;;;;;;;4968708;28;20165;-77
2022/04/07 09:17:26;;;;;;;6.22;1.33;;;;;;;;;;4950685;28;20113;-77
2022/04/07 09:19:53;;;;;;;5.15;1.40;;;;;;;;;;4968391;28;20093;-77
2022/04/07 09:22:29;;;;;;;5.93;1.52;;;;;;;;;;4950957;28;20460;-78
2022/04/07 09:24:56;;;;;;;7.38;1.17;;;;;;;;;;4967451;28;20094;-77
2022/04/07 09:27:23;;;;;;;5.45;1.30;;;;;;;;;;4968146;28;20145;-77
2022/04/07 09:29:55;;;;;;;4.75;1.40;;;;;;;;;;4967596;28;20141;-77
2022/04/07 09:32:26;;;;;;;12.05;1.33;;;;;;;;;;4964961;28;20082;-78
2022/04/07 09:34:55;;;;;;;8.50;1.10;;;;;;;;;;4966881;28;20105;-77
2022/04/07 09:37:23;;;;;;;5.53;0.90;;;;;;;;;;4950509;28;20094;-77
2022/04/07 09:40:01;;;;;;;3.22;0.93;;;;;;;;;;4967583;28;20088;-77
2022/04/07 09:42:29;;;;;;;6.43;1.48;;;;;;;;;;4966114;28;20082;-77
2022/04/07 09:44:59;;;;;;;3.83;1.10;;;;;;;;;;4949817;28;20050;-77
2022/04/07 09:47:36;;;;;;;3.80;1.27;;;;;;;;;;4966755;28;20146;-77
2022/04/07 09:50:04;;;;;;;6.07;1.48;;;;;;;;;;4967303;28;20090;-78
2022/04/07 09:52:31;;;;;;;4.80;1.13;;;;;;;;;;4966970;28;20130;-79
2022/04/07 09:55:06;;;;;;;5.65;1.75;;;;;;;;;;4967666;28;20109;-79
2022/04/07 09:57:34;;;;;;;6.32;1.60;;;;;;;;;;4970048;28;20043;-78
2022/04/07 10:00:02;;;;;;;5.32;1.58;;;;;;;;;;4984923;28;20109;-79
2022/04/07 10:02:30;;;;;;;6.38;1.40;;;;;;;;;;4970068;28;20162;-78
2022/04/07 10:04:58;;;;;;;5.47;1.80;;;;;;;;;;4951799;28;20058;-79
2022/04/07 10:07:25;;;;;;;2.70;1.40;;;;;;;;;;4969151;28;20082;-78
2022/04/07 10:09:53;;;;;;;5.82;1.33;;;;;;;;;;4951937;28;20090;-79
2022/04/07 10:12:20;;;;;;;4.75;1.65;;;;;;;;;;4970622;28;20514;-79
2022/04/07 10:14:48;;;;;;;5.63;1.30;;;;;;;;;;4969518;28;20082;-79
2022/04/07 10:17:15;;;;;;;5.70;1.23;;;;;;;;;;4969570;28;20137;-79
2022/04/07 10:19:49;;;;;;;4.15;1.33;;;;;;;;;;4968387;28;20062;-79
2022/04/07 10:22:19;;;;;;;7.40;1.63;;;;;;;;;;4951176;28;20596;-79
2022/04/07 10:24:49;;;;;;;8.27;1.88;;;;;;;;;;4970479;28;20078;-80
2022/04/07 10:27:30;;;;;;;10.55;2.00;;;;;;;;;;4969998;28;20057;-79
2022/04/07 10:30:11;;;;;;;2.58;1.48;;;;;;;;;;4968308;28;20054;-79
2022/04/07 10:32:40;;;;;;;5.85;1.55;;;;;;;;;;4969834;28;20051;-78
2022/04/07 10:35:08;;;;;;;4.13;1.30;;;;;;;;;;4969284;28;20404;-78
2022/04/07 10:37:41;;;;;;;5.18;1.50;;;;;;;;;;4935008;29;20093;-79
2022/04/07 10:40:27;;;;;;;4.85;1.63;;;;;;;;;;4966773;28;20637;-79
2022/04/07 10:43:10;;;;;;;8.15;1.42;;;;;;;;;;4971355;28;20082;-79
2022/04/07 10:45:38;;;;;;;2.17;1.42;;;;;;;;;;4953563;28;20078;-80
2022/04/07 10:48:25;;;;;;;2.85;1.52;;;;;;;;;;4937583;29;20047;-80
2022/04/07 10:51:02;;;;;;;3.58;1.33;;;;;;;;;;4957735;28;20055;-80
2022/04/07 10:53:34;;;;;;;7.50;2.40;;;;;;;;;;4977685;28;20062;-80
2022/04/07 10:56:02;;;;;;;12.00;2.38;;;;;;;;;;4971183;28;20445;-81
2022/04/07 10:58:42;;;;;;;12.13;2.78;;;;;;;;;;4970142;28;20062;-81
2022/04/07 11:01:28;;;;;;;2.58;2.17;;;;;;;;;;4970364;28;20086;-82
2022/04/07 11:04:14;;;;;;;8.48;2.78;;;;;;;;;;4971226;28;20062;-81
2022/04/07 11:06:41;;;;;;;;;;;;;;;;;;4962781;28;20504;-80
2022/04/07 11:09:12;;;;;;;5.68;2.28;;;;;;;;;;4970691;28;19922;-81
2022/04/07 11:11:55;;;;;;;8.70;3.08;;;;;;;;;;4953999;28;20130;-81
2022/04/07 11:14:28;;;;;;;8.10;2.53;;;;;;;;;;4970850;28;20138;-81
2022/04/07 11:16:57;;;;;;;4.65;2.33;;;;;;;;;;4970657;28;20050;-81
2022/04/07 11:19:50;;;;;;;6.70;2.75;;;;;;;;;;4971664;28;20050;-81
2022/04/07 11:22:22;;;;;;;6.07;4.22;;;;;;;;;;4952161;28;20093;-80
2022/04/07 11:24:55;;;;;;;3.78;2.20;;;;;;;;;;4966078;28;20046;-81
2022/04/07 11:27:35;;;;;;;4.35;2.15;;;;;;;;;;4971167;28;20047;-81
2022/04/07 11:30:09;;;;;;;15.90;2.75;;;;;;;;;;4954177;28;20365;-86
2022/04/07 11:32:38;;;;;;;2.63;1.00;;;;;;;;;;4971026;28;20051;-89
2022/04/07 11:35:13;;;;;;;3.95;0.85;;;;;;;;;;4958247;28;20061;-83
2022/04/07 11:37:43;;;;;;;10.55;1.45;;;;;;;;;;4957408;28;20051;-81
2022/04/07 11:40:11;;;;;;;10.82;1.05;;;;;;;;;;4956621;28;20108;-82
2022/04/07 11:42:39;;;;;;;7.93;1.10;;;;;;;;;;4956516;28;20436;-81
2022/04/07 11:45:08;;;;;;;3.67;0.90;;;;;;;;;;4976548;28;20093;-81
2022/04/07 11:47:39;;;;;;;7.63;1.92;;;;;;;;;;4976972;28;20055;-80
2022/04/07 11:50:08;;;;;;;5.10;1.83;;;;;;;;;;4961779;28;20137;-80
2022/04/07 11:52:36;;;;;;;2.30;1.00;;;;;;;;;;4958684;28;20130;-80
2022/04/07 11:55:05;;;;;;;16.55;1.30;;;;;;;;;;4983402;28;20056;-80
2022/04/07 11:57:33;;;;;;;4.20;1.23;;;;;;;;;;4974017;28;20054;-80
2022/04/07 12:00:01;;;;;;;4.63;1.23;;;;;;;;;;4957206;28;20073;-81
2022/04/07 12:02:28;;;;;;;4.25;1.10;;;;;;;;;;4956218;28;20639;-81
2022/04/07 12:05:04;;;;;;;7.60;0.88;;;;;;;;;;4972430;28;20129;-81
2022/04/07 12:07:32;;;;;;;25.10;1.27;;;;;;;;;;4970889;28;20090;-80
2022/04/07 12:10:08;;;;;;;1.95;1.02;;;;;;;;;;4972871;28;20055;-81
2022/04/07 12:12:41;;;;;;;3.65;1.15;;;;;;;;;;4971685;28;20134;-81
2022/04/07 12:15:11;;;;;;;12.23;1.25;;;;;;;;;;4973340;28;20062;-80
2022/04/07 12:17:57;;;;;;;7.20;1.08;;;;;;;;;;4956121;28;20101;-80
2022/04/07 12:20:28;;;;;;;3.33;0.95;;;;;;;;;;4953948;28;20051;-81
2022/04/07 12:23:22;;;;;;;2.30;0.73;;;;;;;;;;4974016;28;20057;-81
2022/04/07 12:25:57;;;;;;;4.53;1.13;;;;;;;;;;4956880;28;20057;-81
2022/04/07 12:28:31;;;;;;;5.75;0.70;;;;;;;;;;4956890;28;20078;-81
2022/04/07 12:30:58;;;;;;;3.13;0.73;;;;;;;;;;4972694;28;20079;-81
2022/04/07 12:33:36;;;;;;;2.45;0.90;;;;;;;;;;4956467;28;20090;-81
2022/04/07 12:36:04;;;;;;;4.32;0.98;;;;;;;;;;4972864;28;20054;-81
2022/04/07 12:38:31;;;;;;;5.65;1.23;;;;;;;;;;4970462;28;20078;-81
2022/04/07 12:41:09;;;;;;;3.97;1.17;;;;;;;;;;4954763;28;20492;-80
2022/04/07 12:43:43;;;;;;;5.78;0.88;;;;;;;;;;4956092;28;20544;-81
2022/04/07 12:46:10;;;;;;;2.83;0.80;;;;;;;;;;4966794;28;20138;-81
2022/04/07 12:48:38;;;;;;;2.78;1.15;;;;;;;;;;4936585;29;20051;-80
2022/04/07 12:51:23;;;;;;;4.72;1.10;;;;;;;;;;4954823;28;20070;-80
2022/04/07 12:53:51;;;;;;;1.90;1.02;;;;;;;;;;4969802;28;20134;-81
2022/04/07 12:56:27;;;;;;;2.85;0.95;;;;;;;;;;4971942;28;20086;-80
2022/04/07 12:59:04;;;;;;;3.67;0.80;;;;;;;;;;4972270;28;20787;-81
2022/04/07 13:01:31;;;;;;;4.63;0.60;;;;;;;;;;4972797;28;20130;-80
2022/04/07 13:03:59;;;;;;;3.47;0.50;;;;;;;;;;4976363;28;20484;-80
2022/04/07 13:06:27;;;;;;;3.03;0.90;;;;;;;;;;4946373;28;20088;-81
2022/04/07 13:08:55;;;;;;;2.95;0.70;;;;;;;;;;4953399;28;20039;-81
2022/04/07 13:11:32;;;;;;;2.60;0.80;;;;;;;;;;4954054;28;20113;-81
2022/04/07 13:14:00;;;;;;;3.92;0.80;;;;;;;;;;4953400;28;20075;-80
2022/04/07 13:16:28;;;;;;;0.93;0.80;;;;;;;;;;4970817;28;20054;-81
2022/04/07 13:18:55;;;;;;;3.38;0.90;;;;;;;;;;4954429;28;20069;-78
2022/04/07 13:21:22;;;;;;;1.98;0.68;;;;;;;;;;4951909;28;20097;-78
2022/04/07 13:23:50;;;;;;;1.17;0.52;;;;;;;;;;4968200;28;20051;-78
2022/04/07 13:26:17;;;;;;;1.15;0.30;;;;;;;;;;4968751;28;20140;-78
2022/04/07 13:28:47;;;;;;;2.47;0.40;;;;;;;;;;4968266;28;20086;-78
2022/04/07 13:31:14;;;;;;;1.75;0.63;;;;;;;;;;4967483;28;20142;-78
2022/04/07 13:33:41;;;;;;;0.52;0.47;;;;;;;;;;4968438;28;20128;-78
2022/04/07 13:36:08;;;;;;;2.22;0.57;;;;;;;;;;4965959;28;20130;-78
2022/04/07 13:38:36;;;;;;;1.48;0.50;;;;;;;;;;4952280;28;20090;-77
2022/04/07 13:41:04;;;;;;;0.95;0.50;;;;;;;;;;4953543;28;20109;-78
2022/04/07 13:43:32;;;;;;;0.82;0.40;;;;;;;;;;4966995;28;20051;-77
2022/04/07 13:45:59;;;;;;;2.40;0.90;;;;;;;;;;4977462;28;20153;-78
2022/04/07 13:48:29;;;;;;;0.73;0.50;;;;;;;;;;4977837;28;20047;-77
2022/04/07 13:50:56;;;;;;;3.03;0.63;;;;;;;;;;4966526;28;20578;-78
2022/04/07 13:53:24;;;;;;;2.90;0.47;;;;;;;;;;4966741;28;20078;-77
2022/04/07 13:55:51;;;;;;;1.10;0.50;;;;;;;;;;4965494;28;20141;-75
2022/04/07 13:58:18;;;;;;;2.75;0.60;;;;;;;;;;4950595;28;20141;-76
2022/04/07 14:00:45;;;;;;;2.42;0.70;;;;;;;;;;4967258;28;20078;-76
2022/04/07 14:03:13;;;;;;;4.22;0.88;;;;;;;;;;4972243;28;20078;-80
2022/04/07 14:05:40;;;;;;;3.03;0.70;;;;;;;;;;4971694;28;20059;-80
2022/04/07 14:08:13;;;;;;;2.10;0.50;;;;;;;;;;4972084;28;20078;-80
2022/04/07 14:10:42;;;;;;;2.60;0.65;;;;;;;;;;4954794;28;20113;-82
2022/04/07 14:13:10;;;;;;;2.92;0.80;;;;;;;;;;4971883;28;20687;-81
2022/04/07 14:15:38;;;;;;;2.45;0.93;;;;;;;;;;4970339;28;20109;-81
2022/04/07 14:18:07;;;;;;;2.78;0.80;;;;;;;;;;4967585;28;20082;-77
2022/04/07 14:20:35;;;;;;;2.70;0.77;;;;;;;;;;4966040;28;20184;-77
2022/04/07 14:23:03;;;;;;;4.10;0.60;;;;;;;;;;4965192;28;20112;-77
2022/04/07 14:25:30;;;;;;;2.47;1.05;;;;;;;;;;4964268;28;20156;-76
2022/04/07 14:27:57;;;;;;;2.47;0.88;;;;;;;;;;4968335;28;20137;-77
2022/04/07 14:30:25;;;;;;;8.70;1.08;;;;;;;;;;4948900;28;20118;-76
2022/04/07 14:32:52;;;;;;;4.35;0.90;;;;;;;;;;4949946;28;20165;-77
2022/04/07 14:35:37;;;;;;;4.47;1.17;;;;;;;;;;4951141;28;20504;-77
2022/04/07 14:38:04;;;;;;;3.25;0.93;;;;;;;;;;4965029;28;20055;-77
2022/04/07 14:40:32;;;;;;;5.10;0.90;;;;;;;;;;4966221;28;20133;-77
2022/04/07 14:42:59;;;;;;;5.38;1.33;;;;;;;;;;4970102;28;20551;-77
2022/04/07 14:45:26;;;;;;;3.13;0.88;;;;;;;;;;4948952;28;20464;-77
2022/04/07 14:47:53;;;;;;;6.28;0.95;;;;;;;;;;4966186;28;20137;-77
2022/04/07 14:50:23;;;;;;;1.85;0.70;;;;;;;;;;4965947;28;20090;-76